createdAt,value
2018-04-17T00:00:39.343Z,13.07
2018-04-17T00:01:39.346Z,13.07
2018-04-17T00:02:39.360Z,13.03
2018-04-17T00:03:39.370Z,13.12
2018-04-17T00:04:39.382Z,13.09
2018-04-17T00:05:40.110Z,13.07
2018-04-17T00:06:39.407Z,13.02
2018-04-17T00:07:39.409Z,12.99
2018-04-17T00:08:39.416Z,12.99
2018-04-17T00:09:39.433Z,12.93
2018-04-17T00:10:39.434Z,13.04
2018-04-17T00:11:39.448Z,12.97
2018-04-17T00:12:39.462Z,12.85
2018-04-17T00:13:39.470Z,12.88
2018-04-17T00:14:39.481Z,12.87
2018-04-17T00:15:39.497Z,12.81
2018-04-17T00:16:39.502Z,12.81
2018-04-17T00:17:39.514Z,12.88
2018-04-17T00:18:39.521Z,12.81
2018-04-17T00:19:39.534Z,12.85
2018-04-17T00:20:39.537Z,12.70
2018-04-17T00:21:39.563Z,12.70
2018-04-17T00:22:39.565Z,12.67
2018-04-17T00:23:39.584Z,12.71
2018-04-17T00:24:39.581Z,12.74
2018-04-17T00:25:39.596Z,12.66
2018-04-17T00:26:39.606Z,12.74
2018-04-17T00:27:39.610Z,12.71
2018-04-17T00:28:39.624Z,12.74
2018-04-17T00:29:39.634Z,12.69
2018-04-17T00:30:39.641Z,12.56
2018-04-17T00:31:39.648Z,12.54
2018-04-17T00:32:39.661Z,12.52
2018-04-17T00:33:39.669Z,12.48
2018-04-17T00:34:39.680Z,12.48
2018-04-17T00:35:39.704Z,12.49
2018-04-17T00:36:39.698Z,12.48
2018-04-17T00:37:39.705Z,12.42
2018-04-17T00:38:39.718Z,12.41
2018-04-17T00:39:39.736Z,12.38
2018-04-17T00:40:39.740Z,12.41
2018-04-17T00:41:39.748Z,12.33
2018-04-17T00:42:39.780Z,12.37
2018-04-17T00:43:39.765Z,12.33
2018-04-17T00:44:39.776Z,12.33
2018-04-17T00:45:39.785Z,12.20
2018-04-17T00:46:39.798Z,12.13
2018-04-17T00:47:39.809Z,12.21
2018-04-17T00:48:39.816Z,11.99
2018-04-17T00:49:39.831Z,12.04
2018-04-17T00:50:39.847Z,12.05
2018-04-17T00:51:39.850Z,12.06
2018-04-17T00:52:39.873Z,12.02
2018-04-17T00:53:39.866Z,12.06
2018-04-17T00:54:39.881Z,12.08
2018-04-17T00:55:39.890Z,11.99
2018-04-17T00:56:39.904Z,11.89
2018-04-17T00:57:39.907Z,11.93
2018-04-17T00:58:39.930Z,11.97
2018-04-17T00:59:39.928Z,11.97
2018-04-17T01:00:39.934Z,11.99
2018-04-17T01:01:39.964Z,11.94
2018-04-17T01:02:39.955Z,11.93
2018-04-17T01:03:39.965Z,11.89
2018-04-17T01:04:39.975Z,11.87
2018-04-17T01:05:39.991Z,11.82
2018-04-17T01:06:39.992Z,11.90
2018-04-17T01:07:40.005Z,11.72
2018-04-17T01:08:40.012Z,11.71
2018-04-17T01:09:40.027Z,11.61
2018-04-17T01:10:40.036Z,11.71
2018-04-17T01:11:40.043Z,11.67
2018-04-17T01:12:40.055Z,11.57
2018-04-17T01:13:40.063Z,11.56
2018-04-17T01:14:40.071Z,11.56
2018-04-17T01:15:40.083Z,11.44
2018-04-17T01:16:40.091Z,11.46
2018-04-17T01:17:40.098Z,11.49
2018-04-17T01:18:40.107Z,11.44
2018-04-17T01:19:40.127Z,11.44
2018-04-17T01:20:40.129Z,11.49
2018-04-17T01:21:40.135Z,11.39
2018-04-17T01:22:40.147Z,11.41
2018-04-17T01:23:40.155Z,11.34
2018-04-17T01:24:40.171Z,11.24
2018-04-17T01:25:40.180Z,11.11
2018-04-17T01:26:40.183Z,11.01
2018-04-17T01:27:40.198Z,10.99
2018-04-17T01:28:40.203Z,11.03
2018-04-17T01:29:40.219Z,10.99
2018-04-17T01:30:40.222Z,10.96
2018-04-17T01:31:40.233Z,10.99
2018-04-17T01:32:40.241Z,11.02
2018-04-17T01:33:40.255Z,10.91
2018-04-17T01:34:40.267Z,10.77
2018-04-17T01:35:40.269Z,10.76
2018-04-17T01:36:40.284Z,10.68
2018-04-17T01:37:40.285Z,10.74
2018-04-17T01:38:40.295Z,10.77
2018-04-17T01:39:40.303Z,10.77
2018-04-17T01:40:40.317Z,10.78
2018-04-17T01:41:40.324Z,10.81
2018-04-17T01:42:40.331Z,10.83
2018-04-17T01:43:40.345Z,10.76
2018-04-17T01:44:40.353Z,10.81
2018-04-17T01:45:40.359Z,10.84
2018-04-17T01:46:40.376Z,10.84
2018-04-17T01:47:40.379Z,10.83
2018-04-17T01:48:40.393Z,10.89
2018-04-17T01:49:40.397Z,10.88
2018-04-17T01:50:40.409Z,10.92
2018-04-17T01:51:40.426Z,10.94
2018-04-17T01:52:40.425Z,10.94
2018-04-17T01:53:40.438Z,10.80
2018-04-17T01:54:40.446Z,10.74
2018-04-17T01:55:40.466Z,10.71
2018-04-17T01:56:40.462Z,10.74
2018-04-17T01:57:40.474Z,10.76
2018-04-17T01:58:40.493Z,10.80
2018-04-17T01:59:40.495Z,10.84
2018-04-17T02:00:40.500Z,10.77
2018-04-17T02:01:40.510Z,10.66
2018-04-17T02:02:40.518Z,10.62
2018-04-17T02:03:40.529Z,10.62
2018-04-17T02:04:40.541Z,10.62
2018-04-17T02:05:40.557Z,10.52
2018-04-17T02:06:40.557Z,10.58
2018-04-17T02:07:40.568Z,10.55
2018-04-17T02:08:40.574Z,10.42
2018-04-17T02:09:40.583Z,10.34
2018-04-17T02:10:40.596Z,10.39
2018-04-17T02:11:40.604Z,10.43
2018-04-17T02:12:40.619Z,10.42
2018-04-17T02:13:40.626Z,10.52
2018-04-17T02:14:40.630Z,10.42
2018-04-17T02:15:40.640Z,10.34
2018-04-17T02:16:40.646Z,10.39
2018-04-17T02:17:40.657Z,10.36
2018-04-17T02:18:40.668Z,10.39
2018-04-17T02:19:40.681Z,10.33
2018-04-17T02:20:40.691Z,10.34
2018-04-17T02:21:40.696Z,10.30
2018-04-17T02:22:40.702Z,10.19
2018-04-17T02:23:40.716Z,10.15
2018-04-17T02:24:40.723Z,9.96
2018-04-17T02:25:40.731Z,9.94
2018-04-17T02:26:40.746Z,9.82
2018-04-17T02:27:40.752Z,9.83
2018-04-17T02:28:40.759Z,9.79
2018-04-17T02:29:40.763Z,9.82
2018-04-17T02:30:40.781Z,9.81
2018-04-17T02:31:40.791Z,9.81
2018-04-17T02:32:40.799Z,9.86
2018-04-17T02:33:40.803Z,9.91
2018-04-17T02:34:40.812Z,9.96
2018-04-17T02:35:40.821Z,10.00
2018-04-17T02:36:40.835Z,9.97
2018-04-17T02:37:40.840Z,9.96
2018-04-17T02:38:40.855Z,9.86
2018-04-17T02:39:40.856Z,9.91
2018-04-17T02:40:40.873Z,9.99
2018-04-17T02:41:40.872Z,9.94
2018-04-17T02:42:40.899Z,9.97
2018-04-17T02:43:40.895Z,10.01
2018-04-17T02:44:40.911Z,9.97
2018-04-17T02:45:40.908Z,10.01
2018-04-17T02:46:40.914Z,9.89
2018-04-17T02:47:40.930Z,9.99
2018-04-17T02:48:40.940Z,9.99
2018-04-17T02:49:40.950Z,9.97
2018-04-17T02:50:40.963Z,10.01
2018-04-17T02:51:40.967Z,9.89
2018-04-17T02:52:40.974Z,9.94
2018-04-17T02:53:40.981Z,10.03
2018-04-17T02:54:40.995Z,9.97
2018-04-17T02:55:41.000Z,9.99
2018-04-17T02:56:41.014Z,9.99
2018-04-17T02:57:41.016Z,9.97
2018-04-17T02:58:41.033Z,9.96
2018-04-17T02:59:41.032Z,9.97
2018-04-17T03:00:41.046Z,9.88
2018-04-17T03:01:41.054Z,9.86
2018-04-17T03:02:41.064Z,9.88
2018-04-17T03:03:41.065Z,9.88
2018-04-17T03:04:41.076Z,9.82
2018-04-17T03:05:41.083Z,9.79
2018-04-17T03:06:41.105Z,9.79
2018-04-17T03:07:41.101Z,9.75
2018-04-17T03:08:41.117Z,9.88
2018-04-17T03:09:41.124Z,9.88
2018-04-17T03:10:41.130Z,9.91
2018-04-17T03:11:41.137Z,9.83
2018-04-17T03:12:41.149Z,9.70
2018-04-17T03:13:41.163Z,9.79
2018-04-17T03:14:41.164Z,9.75
2018-04-17T03:15:41.174Z,9.68
2018-04-17T03:16:41.225Z,9.75
2018-04-17T03:17:41.199Z,9.75
2018-04-17T03:18:41.198Z,9.78
2018-04-17T03:19:41.215Z,9.81
2018-04-17T03:20:41.217Z,9.68
2018-04-17T03:21:41.227Z,9.70
2018-04-17T03:22:41.247Z,9.52
2018-04-17T03:23:41.251Z,9.63
2018-04-17T03:24:41.250Z,9.45
2018-04-17T03:25:41.262Z,9.46
2018-04-17T03:26:41.275Z,9.45
2018-04-17T03:27:41.281Z,9.42
2018-04-17T03:28:41.291Z,9.45
2018-04-17T03:29:41.307Z,9.50
2018-04-17T03:30:41.308Z,9.60
2018-04-17T03:31:41.319Z,9.71
2018-04-17T03:32:42.258Z,9.56
2018-04-17T03:33:41.329Z,9.56
2018-04-17T03:34:41.345Z,9.53
2018-04-17T03:35:41.353Z,9.46
2018-04-17T03:36:41.355Z,9.64
2018-04-17T03:37:41.365Z,9.52
2018-04-17T03:38:41.374Z,9.60
2018-04-17T03:39:41.381Z,9.40
2018-04-17T03:40:41.388Z,9.48
2018-04-17T03:41:41.409Z,9.38
2018-04-17T03:42:41.508Z,9.39
2018-04-17T03:43:41.421Z,9.50
2018-04-17T03:44:41.425Z,9.42
2018-04-17T03:45:41.435Z,9.40
2018-04-17T03:46:41.443Z,9.40
2018-04-17T03:47:41.451Z,9.45
2018-04-17T03:48:41.460Z,9.40
2018-04-17T03:49:41.467Z,9.40
2018-04-17T03:50:41.483Z,9.40
2018-04-17T03:51:41.484Z,9.39
2018-04-17T03:52:41.584Z,9.34
2018-04-17T03:53:41.509Z,9.45
2018-04-17T03:54:41.512Z,9.39
2018-04-17T03:55:41.517Z,9.34
2018-04-17T03:56:41.528Z,9.40
2018-04-17T03:57:41.545Z,9.45
2018-04-17T03:58:41.542Z,9.38
2018-04-17T03:59:41.552Z,9.38
2018-04-17T04:00:41.560Z,9.32
2018-04-17T04:01:41.570Z,9.30
2018-04-17T04:02:41.647Z,9.16
2018-04-17T04:03:41.587Z,9.16
2018-04-17T04:04:41.598Z,9.24
2018-04-17T04:05:41.601Z,9.16
2018-04-17T04:06:41.655Z,9.20
2018-04-17T04:07:41.622Z,9.20
2018-04-17T04:08:41.633Z,9.24
2018-04-17T04:09:41.637Z,9.16
2018-04-17T04:10:41.646Z,9.15
2018-04-17T04:11:41.654Z,9.06
2018-04-17T04:12:42.263Z,9.02
2018-04-17T04:13:41.675Z,8.94
2018-04-17T04:14:41.681Z,8.96
2018-04-17T04:15:41.725Z,8.88
2018-04-17T04:16:41.697Z,8.90
2018-04-17T04:17:41.708Z,8.84
2018-04-17T04:18:41.715Z,8.86
2018-04-17T04:19:41.726Z,8.90
2018-04-17T04:20:41.730Z,8.88
2018-04-17T04:21:41.737Z,8.87
2018-04-17T04:22:41.745Z,8.94
2018-04-17T04:23:41.757Z,8.88
2018-04-17T04:24:41.776Z,8.88
2018-04-17T04:25:41.774Z,9.09
2018-04-17T04:26:41.784Z,9.04
2018-04-17T04:27:41.791Z,8.93
2018-04-17T04:28:41.798Z,9.01
2018-04-17T04:29:41.811Z,8.93
2018-04-17T04:30:41.825Z,8.97
2018-04-17T04:31:41.826Z,9.01
2018-04-17T04:32:41.842Z,8.91
2018-04-17T04:33:41.837Z,9.01
2018-04-17T04:34:41.851Z,8.94
2018-04-17T04:35:41.872Z,8.91
2018-04-17T04:36:41.871Z,8.94
2018-04-17T04:37:41.889Z,8.96
2018-04-17T04:38:41.885Z,9.01
2018-04-17T04:39:41.900Z,9.10
2018-04-17T04:40:41.901Z,9.10
2018-04-17T04:41:41.907Z,8.99
2018-04-17T04:42:41.916Z,9.06
2018-04-17T04:43:41.926Z,8.94
2018-04-17T04:44:41.938Z,8.86
2018-04-17T04:45:41.944Z,8.81
2018-04-17T04:46:41.979Z,8.79
2018-04-17T04:47:41.961Z,8.81
2018-04-17T04:48:41.963Z,8.86
2018-04-17T04:49:41.980Z,8.84
2018-04-17T04:50:41.987Z,8.88
2018-04-17T04:51:41.994Z,8.81
2018-04-17T04:52:41.999Z,9.09
2018-04-17T04:53:42.005Z,9.04
2018-04-17T04:54:42.016Z,9.01
2018-04-17T04:55:42.031Z,8.93
2018-04-17T04:56:42.051Z,9.02
2018-04-17T04:57:42.064Z,8.99
2018-04-17T04:58:42.052Z,9.10
2018-04-17T04:59:42.061Z,8.97
2018-04-17T05:00:42.070Z,9.10
2018-04-17T05:01:42.079Z,9.18
2018-04-17T05:02:42.091Z,9.15
2018-04-17T05:03:42.097Z,9.05
2018-04-17T05:04:42.103Z,8.90
2018-04-17T05:05:42.113Z,8.84
2018-04-17T05:06:42.126Z,8.88
2018-04-17T05:07:42.132Z,8.88
2018-04-17T05:08:42.146Z,8.99
2018-04-17T05:09:42.143Z,8.90
2018-04-17T05:10:42.151Z,8.96
2018-04-17T05:11:42.158Z,8.86
2018-04-17T05:12:42.170Z,8.87
2018-04-17T05:13:42.179Z,8.99
2018-04-17T05:14:42.190Z,8.99
2018-04-17T05:15:42.194Z,8.94
2018-04-17T05:16:42.202Z,8.99
2018-04-17T05:17:42.214Z,8.97
2018-04-17T05:18:42.221Z,9.21
2018-04-17T05:19:42.225Z,9.02
2018-04-17T05:20:42.240Z,9.10
2018-04-17T05:21:42.243Z,9.16
2018-04-17T05:22:42.253Z,9.24
2018-04-17T05:23:42.266Z,8.99
2018-04-17T05:24:42.271Z,9.09
2018-04-17T05:25:42.279Z,9.27
2018-04-17T05:26:42.295Z,9.24
2018-04-17T05:27:42.296Z,9.18
2018-04-17T05:28:42.315Z,9.15
2018-04-17T05:29:42.336Z,9.18
2018-04-17T05:30:42.322Z,9.15
2018-04-17T05:31:42.333Z,9.06
2018-04-17T05:32:42.343Z,8.97
2018-04-17T05:33:42.357Z,8.99
2018-04-17T05:34:42.354Z,9.01
2018-04-17T05:35:42.370Z,8.91
2018-04-17T05:36:42.375Z,9.01
2018-04-17T05:37:42.383Z,8.93
2018-04-17T05:38:42.390Z,9.05
2018-04-17T05:39:42.403Z,9.15
2018-04-17T05:40:42.406Z,9.16
2018-04-17T05:41:42.426Z,9.05
2018-04-17T05:42:42.425Z,9.20
2018-04-17T05:43:42.430Z,9.09
2018-04-17T05:44:42.443Z,9.13
2018-04-17T05:45:42.453Z,9.23
2018-04-17T05:46:42.458Z,9.18
2018-04-17T05:47:42.476Z,9.23
2018-04-17T05:48:42.474Z,9.28
2018-04-17T05:49:42.481Z,9.31
2018-04-17T05:50:42.491Z,9.25
2018-04-17T05:51:42.501Z,9.23
2018-04-17T05:52:42.511Z,9.16
2018-04-17T05:53:42.529Z,9.27
2018-04-17T05:54:42.528Z,9.34
2018-04-17T05:55:42.592Z,9.39
2018-04-17T05:56:42.543Z,9.32
2018-04-17T05:57:42.552Z,9.34
2018-04-17T05:58:42.562Z,9.43
2018-04-17T05:59:42.589Z,9.45
2018-04-17T06:00:42.581Z,9.43
2018-04-17T06:01:42.587Z,9.48
2018-04-17T06:02:42.595Z,9.56
2018-04-17T06:03:42.612Z,9.58
2018-04-17T06:04:42.612Z,9.61
2018-04-17T06:05:42.623Z,9.61
2018-04-17T06:06:42.636Z,9.66
2018-04-17T06:07:42.642Z,9.73
2018-04-17T06:08:42.646Z,9.76
2018-04-17T06:09:42.667Z,10.00
2018-04-17T06:10:42.666Z,10.07
2018-04-17T06:11:42.675Z,10.10
2018-04-17T06:12:42.688Z,10.14
2018-04-17T06:13:42.745Z,10.17
2018-04-17T06:14:42.698Z,10.10
2018-04-17T06:15:42.719Z,10.12
2018-04-17T06:16:42.715Z,10.10
2018-04-17T06:17:42.726Z,10.15
2018-04-17T06:18:42.735Z,10.15
2018-04-17T06:19:42.745Z,10.22
2018-04-17T06:20:42.752Z,10.28
2018-04-17T06:21:42.768Z,10.15
2018-04-17T06:22:42.770Z,10.22
2018-04-17T06:23:42.780Z,10.22
2018-04-17T06:24:42.786Z,10.26
2018-04-17T06:25:42.797Z,10.26
2018-04-17T06:26:42.825Z,10.28
2018-04-17T06:27:42.826Z,10.39
2018-04-17T06:28:42.825Z,10.34
2018-04-17T06:29:42.836Z,10.36
2018-04-17T06:30:42.843Z,10.40
2018-04-17T06:31:42.849Z,10.51
2018-04-17T06:32:42.858Z,10.55
2018-04-17T06:33:42.869Z,10.65
2018-04-17T06:34:42.879Z,10.76
2018-04-17T06:35:42.887Z,10.81
2018-04-17T06:36:42.909Z,10.81
2018-04-17T06:37:42.903Z,10.86
2018-04-17T06:38:42.915Z,11.03
2018-04-17T06:39:42.926Z,11.14
2018-04-17T06:40:42.932Z,11.29
2018-04-17T06:41:42.979Z,11.34
2018-04-17T06:42:42.950Z,11.46
2018-04-17T06:43:42.963Z,11.54
2018-04-17T06:44:42.968Z,11.70
2018-04-17T06:45:42.977Z,11.77
2018-04-17T06:46:42.988Z,11.85
2018-04-17T06:47:43.079Z,12.02
2018-04-17T06:48:43.004Z,12.06
2018-04-17T06:49:43.020Z,12.13
2018-04-17T06:50:43.024Z,12.19
2018-04-17T06:51:43.037Z,12.15
2018-04-17T06:52:43.102Z,12.13
2018-04-17T06:53:43.049Z,12.06
2018-04-17T06:54:43.062Z,12.16
2018-04-17T06:55:43.079Z,12.13
2018-04-17T06:56:43.079Z,12.20
2018-04-17T06:57:43.090Z,12.21
2018-04-17T06:58:43.111Z,12.15
2018-04-17T06:59:43.108Z,12.11
2018-04-17T07:00:43.115Z,12.16
2018-04-17T07:01:43.135Z,12.24
2018-04-17T07:02:43.139Z,12.27
2018-04-17T07:03:43.146Z,12.24
2018-04-17T07:04:43.159Z,12.26
2018-04-17T07:05:43.162Z,12.34
2018-04-17T07:06:43.172Z,12.37
2018-04-17T07:07:43.191Z,12.33
2018-04-17T07:08:43.202Z,12.37
2018-04-17T07:09:43.202Z,12.34
2018-04-17T07:10:43.213Z,12.31
2018-04-17T07:11:43.233Z,12.34
2018-04-17T07:12:43.240Z,12.34
2018-04-17T07:13:43.243Z,12.31
2018-04-17T07:14:43.249Z,12.39
2018-04-17T07:15:43.258Z,12.41
2018-04-17T07:16:43.275Z,12.45
2018-04-17T07:17:43.276Z,12.41
2018-04-17T07:18:43.289Z,12.49
2018-04-17T07:19:43.303Z,12.66
2018-04-17T07:20:43.305Z,12.60
2018-04-17T07:21:43.318Z,12.62
2018-04-17T07:22:43.325Z,12.74
2018-04-17T07:23:43.340Z,12.74
2018-04-17T07:24:43.344Z,12.71
2018-04-17T07:25:43.385Z,12.84
2018-04-17T07:26:43.363Z,12.79
2018-04-17T07:27:43.373Z,12.82
2018-04-17T07:28:43.382Z,12.89
2018-04-17T07:29:43.393Z,12.95
2018-04-17T07:30:43.401Z,12.96
2018-04-17T07:31:43.420Z,13.03
2018-04-17T07:32:43.421Z,12.97
2018-04-17T07:33:43.432Z,12.99
2018-04-17T07:34:43.454Z,13.09
2018-04-17T07:35:43.451Z,13.25
2018-04-17T07:36:43.462Z,13.18
2018-04-17T07:37:43.475Z,13.18
2018-04-17T07:38:43.485Z,13.27
2018-04-17T07:39:43.491Z,13.30
2018-04-17T07:40:43.507Z,13.29
2018-04-17T07:41:43.511Z,13.37
2018-04-17T07:42:43.521Z,13.37
2018-04-17T07:43:43.540Z,13.40
2018-04-17T07:44:43.538Z,13.47
2018-04-17T07:45:43.555Z,13.51
2018-04-17T07:46:43.559Z,13.52
2018-04-17T07:47:43.571Z,13.49
2018-04-17T07:48:43.579Z,13.59
2018-04-17T07:49:43.592Z,13.52
2018-04-17T07:50:43.600Z,13.52
2018-04-17T07:51:43.606Z,13.49
2018-04-17T07:52:43.624Z,13.61
2018-04-17T07:53:43.626Z,13.59
2018-04-17T07:54:43.643Z,13.67
2018-04-17T07:55:43.698Z,13.70
2018-04-17T07:56:43.654Z,13.70
2018-04-17T07:57:43.667Z,13.76
2018-04-17T07:58:43.694Z,13.77
2018-04-17T07:59:43.691Z,13.77
2018-04-17T08:00:43.699Z,13.79
2018-04-17T08:01:43.713Z,13.88
2018-04-17T08:02:43.723Z,13.95
2018-04-17T08:03:43.729Z,13.83
2018-04-17T08:04:43.743Z,13.94
2018-04-17T08:05:43.747Z,13.89
2018-04-17T08:06:43.766Z,14.01
2018-04-17T08:07:43.771Z,14.09
2018-04-17T08:08:43.780Z,14.09
2018-04-17T08:09:43.787Z,14.21
2018-04-17T08:10:43.810Z,14.28
2018-04-17T08:11:43.808Z,14.44
2018-04-17T08:12:43.823Z,14.64
2018-04-17T08:13:43.838Z,14.74
2018-04-17T08:14:43.845Z,14.72
2018-04-17T08:15:43.849Z,14.72
2018-04-17T08:16:43.859Z,14.99
2018-04-17T08:17:43.879Z,15.12
2018-04-17T08:18:43.878Z,15.24
2018-04-17T08:19:43.890Z,15.26
2018-04-17T08:20:43.899Z,15.28
2018-04-17T08:21:43.910Z,15.41
2018-04-17T08:22:43.921Z,15.49
2018-04-17T08:23:43.930Z,15.60
2018-04-17T08:24:43.942Z,15.60
2018-04-17T08:25:43.956Z,15.61
2018-04-17T08:26:43.973Z,15.68
2018-04-17T08:27:43.974Z,15.72
2018-04-17T08:28:43.983Z,15.76
2018-04-17T08:29:43.995Z,15.68
2018-04-17T08:30:44.011Z,15.66
2018-04-17T08:31:44.012Z,15.64
2018-04-17T08:32:44.028Z,15.78
2018-04-17T08:33:44.032Z,15.76
2018-04-17T08:34:44.046Z,15.72
2018-04-17T08:35:44.056Z,15.72
2018-04-17T08:36:44.111Z,15.70
2018-04-17T08:37:44.088Z,15.79
2018-04-17T08:38:44.120Z,15.78
2018-04-17T08:39:44.097Z,15.67
2018-04-17T08:40:44.109Z,15.61
2018-04-17T08:41:44.116Z,15.66
2018-04-17T08:42:44.144Z,15.72
2018-04-17T08:43:44.143Z,15.75
2018-04-17T08:44:44.150Z,15.84
2018-04-17T08:45:44.166Z,15.96
2018-04-17T08:46:44.171Z,16.15
2018-04-17T08:47:44.195Z,16.20
2018-04-17T08:48:44.198Z,16.33
2018-04-17T08:49:44.204Z,16.37
2018-04-17T08:50:44.215Z,16.42
2018-04-17T08:51:44.231Z,16.37
2018-04-17T08:52:44.234Z,16.35
2018-04-17T08:53:44.247Z,16.41
2018-04-17T08:54:44.259Z,16.49
2018-04-17T08:55:44.271Z,16.42
2018-04-17T08:56:44.279Z,16.38
2018-04-17T08:57:44.299Z,16.40
2018-04-17T08:58:44.303Z,16.53
2018-04-17T08:59:44.311Z,16.65
2018-04-17T09:00:44.327Z,16.59
2018-04-17T09:01:44.335Z,16.62
2018-04-17T09:02:44.346Z,16.73
2018-04-17T09:03:44.364Z,16.88
2018-04-17T09:04:44.369Z,16.88
2018-04-17T09:05:44.382Z,16.83
2018-04-17T09:06:44.389Z,16.95
2018-04-17T09:07:44.399Z,17.06
2018-04-17T09:08:44.410Z,17.04
2018-04-17T09:09:44.431Z,17.22
2018-04-17T09:10:44.431Z,17.22
2018-04-17T09:11:44.485Z,17.32
2018-04-17T09:12:44.458Z,17.36
2018-04-17T09:13:44.466Z,17.38
2018-04-17T09:14:44.477Z,17.41
2018-04-17T09:15:44.499Z,17.35
2018-04-17T09:16:44.500Z,17.35
2018-04-17T09:17:44.512Z,17.50
2018-04-17T09:18:44.530Z,17.59
2018-04-17T09:19:44.534Z,17.54
2018-04-17T09:20:44.545Z,17.63
2018-04-17T09:21:44.558Z,17.55
2018-04-17T09:22:44.567Z,17.51
2018-04-17T09:23:44.578Z,17.47
2018-04-17T09:24:44.593Z,17.67
2018-04-17T09:25:44.600Z,17.79
2018-04-17T09:26:44.625Z,17.70
2018-04-17T09:27:44.623Z,17.55
2018-04-17T09:28:44.635Z,17.59
2018-04-17T09:29:44.650Z,17.63
2018-04-17T09:30:44.661Z,17.71
2018-04-17T09:31:44.669Z,17.88
2018-04-17T09:32:44.681Z,18.03
2018-04-17T09:33:44.705Z,18.15
2018-04-17T09:34:44.704Z,18.12
2018-04-17T09:35:44.715Z,18.10
2018-04-17T09:36:44.727Z,18.12
2018-04-17T09:37:44.739Z,18.10
2018-04-17T09:38:44.750Z,18.36
2018-04-17T09:39:44.789Z,18.28
2018-04-17T09:40:44.773Z,18.43
2018-04-17T09:41:44.809Z,18.40
2018-04-17T09:42:44.796Z,18.42
2018-04-17T09:43:44.811Z,18.42
2018-04-17T09:44:44.825Z,18.44
2018-04-17T09:45:44.832Z,18.49
2018-04-17T09:46:44.859Z,18.46
2018-04-17T09:47:44.857Z,18.50
2018-04-17T09:48:44.879Z,18.42
2018-04-17T09:49:44.878Z,18.50
2018-04-17T09:50:44.888Z,18.40
2018-04-17T09:51:44.902Z,18.47
2018-04-17T09:52:44.912Z,18.54
2018-04-17T09:53:44.925Z,18.40
2018-04-17T09:54:44.938Z,18.54
2018-04-17T09:55:44.957Z,18.74
2018-04-17T09:56:44.960Z,18.86
2018-04-17T09:57:44.987Z,18.79
2018-04-17T09:58:44.988Z,18.82
2018-04-17T09:59:44.999Z,18.94
2018-04-17T10:00:45.008Z,18.91
2018-04-17T10:01:45.020Z,18.92
2018-04-17T10:02:45.035Z,18.87
2018-04-17T10:03:45.057Z,18.68
2018-04-17T10:04:45.056Z,18.39
2018-04-17T10:05:45.070Z,18.18
2018-04-17T10:06:45.079Z,18.12
2018-04-17T10:07:45.096Z,18.02
2018-04-17T10:08:45.117Z,17.97
2018-04-17T10:09:45.119Z,17.92
2018-04-17T10:10:45.131Z,18.00
2018-04-17T10:11:45.141Z,18.06
2018-04-17T10:12:45.160Z,17.99
2018-04-17T10:13:45.167Z,18.03
2018-04-17T10:14:45.179Z,18.12
2018-04-17T10:15:45.189Z,17.97
2018-04-17T10:16:45.201Z,18.09
2018-04-17T10:17:45.215Z,18.07
2018-04-17T10:18:45.226Z,18.13
2018-04-17T10:19:45.237Z,18.24
2018-04-17T10:20:45.253Z,18.47
2018-04-17T10:21:45.275Z,18.42
2018-04-17T10:22:45.274Z,18.57
2018-04-17T10:23:45.287Z,18.62
2018-04-17T10:24:45.299Z,18.64
2018-04-17T10:25:45.310Z,18.58
2018-04-17T10:26:45.330Z,18.68
2018-04-17T10:27:45.345Z,18.86
2018-04-17T10:28:45.362Z,19.28
2018-04-17T10:29:45.376Z,19.46
2018-04-17T10:30:45.375Z,19.57
2018-04-17T10:31:45.386Z,19.72
2018-04-17T10:32:45.408Z,19.70
2018-04-17T10:33:45.411Z,19.98
2018-04-17T10:34:45.425Z,20.12
2018-04-17T10:35:45.437Z,20.13
2018-04-17T10:36:45.450Z,20.18
2018-04-17T10:37:45.462Z,20.24
2018-04-17T10:38:45.505Z,20.46
2018-04-17T10:39:45.525Z,20.53
2018-04-17T10:40:45.504Z,20.61
2018-04-17T10:41:45.515Z,20.69
2018-04-17T10:42:45.528Z,20.68
2018-04-17T10:43:45.543Z,20.72
2018-04-17T10:44:45.555Z,20.86
2018-04-17T10:45:45.578Z,20.93
2018-04-17T10:46:45.582Z,21.01
2018-04-17T10:47:45.601Z,20.95
2018-04-17T10:48:45.612Z,21.09
2018-04-17T10:49:45.622Z,21.19
2018-04-17T10:50:45.639Z,21.20
2018-04-17T10:51:45.656Z,21.41
2018-04-17T10:52:45.666Z,21.34
2018-04-17T10:53:45.735Z,21.23
2018-04-17T10:54:45.694Z,21.34
2018-04-17T10:55:45.707Z,21.46
2018-04-17T10:56:45.721Z,21.63
2018-04-17T10:57:45.748Z,21.75
2018-04-17T10:58:45.755Z,21.74
2018-04-17T10:59:45.836Z,22.09
2018-04-17T11:00:45.778Z,22.34
2018-04-17T11:01:45.798Z,22.96
2018-04-17T11:02:45.811Z,23.60
2018-04-17T11:03:45.828Z,23.94
2018-04-17T11:04:45.841Z,23.90
2018-04-17T11:05:45.852Z,24.47
2018-04-17T11:06:45.869Z,25.09
2018-04-17T11:07:45.885Z,25.52
2018-04-17T11:08:45.902Z,25.75
2018-04-17T11:09:45.933Z,25.90
2018-04-17T11:10:45.938Z,26.28
2018-04-17T11:11:45.961Z,26.49
2018-04-17T11:12:45.973Z,26.68
2018-04-17T11:13:45.994Z,26.54
2018-04-17T11:14:46.015Z,26.76
2018-04-17T11:15:46.043Z,27.04
2018-04-17T11:16:46.057Z,27.26
2018-04-17T11:17:46.081Z,27.39
2018-04-17T11:18:46.096Z,27.76
2018-04-17T11:19:46.127Z,27.70
2018-04-17T11:20:46.142Z,28.35
2018-04-17T11:21:46.163Z,28.96
2018-04-17T11:22:46.195Z,28.78
2018-04-17T11:23:46.207Z,28.84
2018-04-17T11:24:46.229Z,29.55
2018-04-17T11:25:46.253Z,29.55
2018-04-17T11:26:46.279Z,28.88
2018-04-17T11:27:46.305Z,28.59
2018-04-17T11:28:46.329Z,28.77
2018-04-17T11:29:46.361Z,29.07
2018-04-17T11:30:46.422Z,29.82
2018-04-17T11:31:46.396Z,30.49
2018-04-17T11:32:46.420Z,30.49
2018-04-17T11:33:46.444Z,29.82
2018-04-17T11:34:46.487Z,29.23
2018-04-17T11:35:46.493Z,28.84
2018-04-17T11:36:46.522Z,29.26
2018-04-17T11:37:46.543Z,29.11
2018-04-17T11:38:46.570Z,28.82
2018-04-17T11:39:46.609Z,28.88
2018-04-17T11:40:46.624Z,28.40
2018-04-17T11:41:46.642Z,29.06
2018-04-17T11:42:46.671Z,29.13
2018-04-17T11:43:46.701Z,29.18
2018-04-17T11:44:46.719Z,28.78
2018-04-17T11:45:46.747Z,29.00
2018-04-17T11:46:46.770Z,29.93
2018-04-17T11:47:46.801Z,30.76
2018-04-17T11:48:46.826Z,30.99
2018-04-17T11:49:46.849Z,30.96
2018-04-17T11:50:46.878Z,31.08
2018-04-17T11:51:46.900Z,31.65
2018-04-17T11:52:46.929Z,32.17
2018-04-17T11:53:46.961Z,31.98
2018-04-17T11:54:46.980Z,32.54
2018-04-17T11:55:47.006Z,32.49
2018-04-17T11:56:47.036Z,32.80
2018-04-17T11:57:47.060Z,32.71
2018-04-17T11:58:47.088Z,32.07
2018-04-17T11:59:47.118Z,32.40
2018-04-17T12:00:47.143Z,32.43
2018-04-17T12:01:47.167Z,32.11
2018-04-17T12:02:47.198Z,32.06
2018-04-17T12:03:47.229Z,32.74
2018-04-17T12:04:47.249Z,32.58
2018-04-17T12:05:47.289Z,32.24
2018-04-17T12:06:47.307Z,32.54
2018-04-17T12:07:47.332Z,33.22
2018-04-17T12:08:47.359Z,32.20
2018-04-17T12:09:47.391Z,32.67
2018-04-17T12:10:47.420Z,32.86
2018-04-17T12:11:47.449Z,33.15
2018-04-17T12:12:47.510Z,32.79
2018-04-17T12:13:47.500Z,33.23
2018-04-17T12:14:47.530Z,33.76
2018-04-17T12:15:47.615Z,33.53
2018-04-17T12:16:47.589Z,33.20
2018-04-17T12:17:47.624Z,33.58
2018-04-17T12:18:47.642Z,33.94
2018-04-17T12:19:47.677Z,33.58
2018-04-17T12:20:47.707Z,33.01
2018-04-17T12:21:47.729Z,32.80
2018-04-17T12:22:47.755Z,33.52
2018-04-17T12:23:47.797Z,33.22
2018-04-17T12:24:47.819Z,33.61
2018-04-17T12:25:47.875Z,34.01
2018-04-17T12:26:47.875Z,33.61
2018-04-17T12:27:47.898Z,32.24
2018-04-17T12:28:47.928Z,32.02
2018-04-17T12:29:47.967Z,32.14
2018-04-17T12:30:47.984Z,31.87
2018-04-17T12:31:48.014Z,32.17
2018-04-17T12:32:48.041Z,32.22
2018-04-17T12:33:48.069Z,32.66
2018-04-17T12:34:48.093Z,33.10
2018-04-17T12:35:48.126Z,32.84
2018-04-17T12:36:48.154Z,33.20
2018-04-17T12:37:48.171Z,33.23
2018-04-17T12:38:48.199Z,32.70
2018-04-17T12:39:48.222Z,33.43
2018-04-17T12:40:48.251Z,32.84
2018-04-17T12:41:48.271Z,32.85
2018-04-17T12:42:48.304Z,33.41
2018-04-17T12:43:48.317Z,33.60
2018-04-17T12:44:48.341Z,33.13
2018-04-17T12:45:48.368Z,33.04
2018-04-17T12:46:48.389Z,33.20
2018-04-17T12:47:48.414Z,33.39
2018-04-17T12:48:48.441Z,32.52
2018-04-17T12:49:48.469Z,32.67
2018-04-17T12:50:48.481Z,33.06
2018-04-17T12:51:48.506Z,33.34
2018-04-17T12:52:48.526Z,33.64
2018-04-17T12:53:48.548Z,34.11
2018-04-17T12:54:48.587Z,34.14
2018-04-17T12:55:48.600Z,33.55
2018-04-17T12:56:48.617Z,33.65
2018-04-17T12:57:48.641Z,33.92
2018-04-17T12:58:48.663Z,33.33
2018-04-17T12:59:48.688Z,33.36